Accueil
METAR-TAF:

METAR-TAF

Aéroports :

Manille, Philippines

Aéroport international Ninoy-Aquino

latitude: 14-31N, longitude: 121-00E, altitude: 14 m

Observation

Le bulletin a été fait il y a 1 heure et 8 minutes, à 21:00 UTC
Vent 3 kt de est/nord-est
Température 24°C
Humidité 100%
Pression 1012 hPa
Visibilité 10 km ou plus
Quelques nuages à une hauteur de 2300 ft

METAR: RPLL 222100Z 06003KT 9999 FEW023 24/24 Q1012 NOSIG RMK A2988

Heure: 06:08 (22:08 UTC)

Prévision

Le bulletin a été fait il y a 5 heures et 8 minutes, à 17:00 UTC
Prévision valable du 22 à 18 UTC au 23 à 24 UTC
Vent 7 kt de est/nord-est
Visibilité 10 km ou plus
Quelques nuages à une hauteur de 2500 ft
Temporairement
du 22 à 18 UTC au 22 à 24 UTC
Vent 4 kt de nord-est
Temporairement
du 23 à 00 UTC au 23 à 06 UTC
Vent 14 kt de nord-est

TAF: RPLL 221700Z 2218/2324 06007KT 9999 FEW025 TX34/2306Z TN25/2221Z TEMPO 2218/2224 05004KT TEMPO 2300/2306 05014KT

Observations et prévisions météorologiques de plus de 4000 aéroports (messages METAR et TAF).

Les stations disponibles sont représentées par des disques jaunes et rouges sur la carte.

Passer la souris dessus pour voir le nom de la station.

Cliquer dessus pour voir les observations et prévisions météorologiques.

Pour changer de carte: cliquez sur les boutons verts avec une croix noire pour zoomer, sur le bouton vert avec un tiret pour effectuer un zoom arrière, ou sur les flèches vertes pour les cartes adjacentes.


METAR-TAF: